createdAt,value
2023-10-14T00:00:58.452Z,0.00
2023-10-14T00:01:58.420Z,0.00
2023-10-14T00:02:58.421Z,0.00
2023-10-14T00:03:58.446Z,0.00
2023-10-14T00:04:58.386Z,0.00
2023-10-14T00:05:58.340Z,0.00
2023-10-14T00:06:58.409Z,0.00
2023-10-14T00:07:58.337Z,0.00
2023-10-14T00:08:58.317Z,0.00
2023-10-14T00:09:58.733Z,0.00
2023-10-14T00:10:58.290Z,0.00
2023-10-14T00:11:58.282Z,0.00
2023-10-14T00:12:58.349Z,0.00
2023-10-14T00:13:58.280Z,0.00
2023-10-14T00:14:58.240Z,0.00
2023-10-14T00:15:58.242Z,0.00
2023-10-14T00:16:58.244Z,0.00
2023-10-14T00:17:58.232Z,0.00
2023-10-14T00:18:58.339Z,0.00
2023-10-14T00:19:58.195Z,0.00
2023-10-14T00:20:58.177Z,0.00
2023-10-14T00:21:58.227Z,0.00
2023-10-14T00:22:58.154Z,0.00
2023-10-14T00:23:58.142Z,0.00
2023-10-14T00:24:58.171Z,0.00
2023-10-14T00:25:58.123Z,0.00
2023-10-14T00:26:58.110Z,0.00
2023-10-14T00:27:58.106Z,0.00
2023-10-14T00:28:58.083Z,0.00
2023-10-14T00:29:58.092Z,0.00
2023-10-14T00:30:58.095Z,0.00
2023-10-14T00:31:58.106Z,0.00
2023-10-14T00:32:58.061Z,0.00
2023-10-14T00:33:58.078Z,0.00
2023-10-14T00:34:58.039Z,0.00
2023-10-14T00:35:58.030Z,0.00
2023-10-14T00:36:58.046Z,0.00
2023-10-14T00:37:57.990Z,0.00
2023-10-14T00:38:57.967Z,0.00
2023-10-14T00:39:57.990Z,0.00
2023-10-14T00:40:57.971Z,0.00
2023-10-14T00:41:57.951Z,0.00
2023-10-14T00:42:57.931Z,0.00
2023-10-14T00:43:57.920Z,0.00
2023-10-14T00:44:57.909Z,0.00
2023-10-14T00:45:57.948Z,0.00
2023-10-14T00:46:58.124Z,0.00
2023-10-14T00:47:57.900Z,0.00
2023-10-14T00:48:57.883Z,0.00
2023-10-14T00:49:57.846Z,0.00
2023-10-14T00:50:57.837Z,0.00
2023-10-14T00:51:57.851Z,0.00
2023-10-14T00:52:57.832Z,0.00
2023-10-14T00:53:57.808Z,0.00
2023-10-14T00:54:57.884Z,0.00
2023-10-14T00:55:57.775Z,0.00
2023-10-14T00:56:57.789Z,0.00
2023-10-14T00:57:57.787Z,0.00
2023-10-14T00:58:57.750Z,0.00
2023-10-14T00:59:57.736Z,0.00
2023-10-14T01:00:57.771Z,0.00
2023-10-14T01:01:57.741Z,0.00
2023-10-14T01:02:57.739Z,0.00
2023-10-14T01:03:57.742Z,0.00
2023-10-14T01:04:57.680Z,0.00
2023-10-14T01:05:57.683Z,0.00
2023-10-14T01:06:57.730Z,0.00
2023-10-14T01:07:57.655Z,0.00
2023-10-14T01:08:57.645Z,0.00
2023-10-14T01:09:57.643Z,0.00
2023-10-14T01:10:57.616Z,0.00
2023-10-14T01:11:57.597Z,0.00
2023-10-14T01:12:57.634Z,0.00
2023-10-14T01:13:57.580Z,0.00
2023-10-14T01:14:57.566Z,0.00
2023-10-14T01:15:57.628Z,0.00
2023-10-14T01:16:57.599Z,0.00
2023-10-14T01:17:57.590Z,0.00
2023-10-14T01:18:57.533Z,0.00
2023-10-14T01:19:57.512Z,0.00
2023-10-14T01:20:57.488Z,0.00
2023-10-14T01:21:57.550Z,0.00
2023-10-14T01:22:57.526Z,0.00
2023-10-14T01:23:57.456Z,0.00
2023-10-14T01:24:57.485Z,0.00
2023-10-14T01:25:57.450Z,0.00
2023-10-14T01:26:57.430Z,0.00
2023-10-14T01:27:57.446Z,0.00
2023-10-14T01:28:57.427Z,0.00
2023-10-14T01:29:57.396Z,0.00
2023-10-14T01:30:57.427Z,0.00
2023-10-14T01:31:57.455Z,0.00
2023-10-14T01:32:57.477Z,0.00
2023-10-14T01:33:57.387Z,0.00
2023-10-14T01:34:57.336Z,0.00
2023-10-14T01:35:57.329Z,0.00
2023-10-14T01:36:57.402Z,0.00
2023-10-14T01:37:57.331Z,0.00
2023-10-14T01:38:57.313Z,0.00
2023-10-14T01:39:57.301Z,0.00
2023-10-14T01:40:57.266Z,0.00
2023-10-14T01:41:57.254Z,0.00
2023-10-14T01:42:57.313Z,0.00
2023-10-14T01:43:57.267Z,0.00
2023-10-14T01:44:57.236Z,0.00
2023-10-14T01:45:57.275Z,0.00
2023-10-14T01:46:57.277Z,0.00
2023-10-14T01:47:57.207Z,0.00
2023-10-14T01:48:57.222Z,0.00
2023-10-14T01:49:57.181Z,0.00
2023-10-14T01:50:57.197Z,0.00
2023-10-14T01:51:57.177Z,0.00
2023-10-14T01:52:57.148Z,0.00
2023-10-14T01:53:57.137Z,0.00
2023-10-14T01:54:57.222Z,0.00
2023-10-14T01:55:57.094Z,0.00
2023-10-14T01:56:57.089Z,0.00
2023-10-14T01:57:57.152Z,0.00
2023-10-14T01:58:57.079Z,0.00
2023-10-14T01:59:57.062Z,0.00
2023-10-14T02:00:57.108Z,0.00
2023-10-14T02:01:57.059Z,0.00
2023-10-14T02:02:57.131Z,0.00
2023-10-14T02:03:57.141Z,0.00
2023-10-14T02:04:57.158Z,0.00
2023-10-14T02:05:56.979Z,0.00
2023-10-14T02:06:56.996Z,0.00
2023-10-14T02:07:56.958Z,0.00
2023-10-14T02:08:56.967Z,0.00
2023-10-14T02:09:57.153Z,0.00
2023-10-14T02:10:56.938Z,0.00
2023-10-14T02:11:56.920Z,0.00
2023-10-14T02:12:56.913Z,0.00
2023-10-14T02:13:56.915Z,0.00
2023-10-14T02:14:56.902Z,0.00
2023-10-14T02:15:56.946Z,0.00
2023-10-14T02:16:57.002Z,0.00
2023-10-14T02:17:56.878Z,0.00
2023-10-14T02:18:56.879Z,0.00
2023-10-14T02:19:56.834Z,0.00
2023-10-14T02:20:56.818Z,0.00
2023-10-14T02:21:56.829Z,0.00
2023-10-14T02:22:56.799Z,0.00
2023-10-14T02:23:56.785Z,0.00
2023-10-14T02:24:56.822Z,0.00
2023-10-14T02:25:56.776Z,0.00
2023-10-14T02:26:56.742Z,0.00
2023-10-14T02:27:56.763Z,0.00
2023-10-14T02:28:56.733Z,0.00
2023-10-14T02:29:56.737Z,0.00
2023-10-14T02:30:56.820Z,0.00
2023-10-14T02:31:56.702Z,0.00
2023-10-14T02:32:56.690Z,0.00
2023-10-14T02:33:56.692Z,0.00
2023-10-14T02:34:56.684Z,0.00
2023-10-14T02:35:56.647Z,0.00
2023-10-14T02:36:56.648Z,0.00
2023-10-14T02:37:56.625Z,0.00
2023-10-14T02:38:56.630Z,0.00
2023-10-14T02:41:07.216Z,0.00
2023-10-14T02:42:08.193Z,0.00
2023-10-14T02:43:08.264Z,0.00
2023-10-14T02:44:08.244Z,0.00
2023-10-14T02:45:08.189Z,0.00
2023-10-14T02:46:08.162Z,0.00
2023-10-14T02:47:08.184Z,0.00
2023-10-14T02:48:08.173Z,0.00
2023-10-14T02:49:08.238Z,0.00
2023-10-14T02:50:08.132Z,0.00
2023-10-14T02:51:08.112Z,0.00
2023-10-14T02:52:08.119Z,0.00
2023-10-14T02:53:08.095Z,0.00
2023-10-14T02:54:08.076Z,0.00
2023-10-14T02:55:08.067Z,0.00
2023-10-14T02:56:08.050Z,0.00
2023-10-14T02:57:08.014Z,0.00
2023-10-14T02:58:08.045Z,0.00
2023-10-14T02:59:08.021Z,0.00
2023-10-14T03:00:08.027Z,0.00
2023-10-14T03:01:08.073Z,0.00
2023-10-14T03:02:08.039Z,0.00
2023-10-14T03:03:08.050Z,0.00
2023-10-14T03:04:07.982Z,0.00
2023-10-14T03:05:07.983Z,0.00
2023-10-14T03:06:07.942Z,0.00
2023-10-14T03:07:07.968Z,0.00
2023-10-14T03:08:07.924Z,0.00
2023-10-14T03:09:07.912Z,0.00
2023-10-14T03:10:07.982Z,0.00
2023-10-14T03:11:07.932Z,0.00
2023-10-14T03:12:07.884Z,0.00
2023-10-14T03:13:07.913Z,0.00
2023-10-14T03:14:07.873Z,0.00
2023-10-14T03:15:07.841Z,0.00
2023-10-14T03:16:07.897Z,0.00
2023-10-14T03:17:07.884Z,0.00
2023-10-14T03:18:07.876Z,0.00
2023-10-14T03:19:07.833Z,0.00
2023-10-14T03:20:07.810Z,0.00
2023-10-14T03:21:07.810Z,0.00
2023-10-14T03:22:07.845Z,0.00
2023-10-14T03:23:07.778Z,0.00
2023-10-14T03:24:07.749Z,0.00
2023-10-14T03:25:07.758Z,0.00
2023-10-14T03:26:07.763Z,0.00
2023-10-14T03:27:07.731Z,0.00
2023-10-14T03:28:07.809Z,0.00
2023-10-14T03:29:07.678Z,0.00
2023-10-14T03:30:07.698Z,0.00
2023-10-14T03:31:07.747Z,0.00
2023-10-14T03:32:07.665Z,0.00
2023-10-14T03:33:07.677Z,0.00
2023-10-14T03:34:07.714Z,0.00
2023-10-14T03:35:07.628Z,0.00
2023-10-14T03:36:07.650Z,0.00
2023-10-14T03:37:07.632Z,0.00
2023-10-14T03:38:07.593Z,0.00
2023-10-14T03:39:07.578Z,0.00
2023-10-14T03:40:07.615Z,0.00
2023-10-14T03:41:07.638Z,0.00
2023-10-14T03:42:07.573Z,0.00
2023-10-14T03:43:07.546Z,0.00
2023-10-14T03:44:07.541Z,0.00
2023-10-14T03:45:07.523Z,0.00
2023-10-14T03:46:07.618Z,0.00
2023-10-14T03:47:07.540Z,0.00
2023-10-14T03:48:07.520Z,0.00
2023-10-14T03:49:10.777Z,0.00
2023-10-14T03:50:07.446Z,0.00
2023-10-14T03:51:07.456Z,0.00
2023-10-14T03:52:07.495Z,0.00
2023-10-14T03:53:07.415Z,0.00
2023-10-14T03:54:07.422Z,0.00
2023-10-14T03:55:09.154Z,0.00
2023-10-14T03:56:07.428Z,0.00
2023-10-14T03:57:07.401Z,0.00
2023-10-14T03:58:07.461Z,0.00
2023-10-14T03:59:07.429Z,0.00
2023-10-14T04:00:07.378Z,0.00
2023-10-14T04:01:07.391Z,0.00
2023-10-14T04:02:07.324Z,0.00
2023-10-14T04:03:07.403Z,0.00
2023-10-14T04:04:07.434Z,0.00
2023-10-14T04:05:07.302Z,0.00
2023-10-14T04:06:07.288Z,0.00
2023-10-14T04:07:07.359Z,0.00
2023-10-14T04:08:07.278Z,0.00
2023-10-14T04:09:07.261Z,0.00
2023-10-14T04:10:07.298Z,0.00
2023-10-14T04:11:07.224Z,0.00
2023-10-14T04:12:07.214Z,0.00
2023-10-14T04:13:07.255Z,0.00
2023-10-14T04:14:07.202Z,0.00
2023-10-14T04:15:07.214Z,0.00
2023-10-14T04:16:07.251Z,0.00
2023-10-14T04:17:07.171Z,0.00
2023-10-14T04:18:07.199Z,0.00
2023-10-14T04:19:07.228Z,0.00
2023-10-14T04:20:07.187Z,0.00
2023-10-14T04:21:07.118Z,0.00
2023-10-14T04:22:07.192Z,0.00
2023-10-14T04:23:07.083Z,0.00
2023-10-14T04:24:07.104Z,0.00
2023-10-14T04:25:07.115Z,0.00
2023-10-14T04:26:07.054Z,0.00
2023-10-14T04:27:07.076Z,0.00
2023-10-14T04:28:07.106Z,0.00
2023-10-14T04:29:07.026Z,0.00
2023-10-14T04:30:07.041Z,0.00
2023-10-14T04:31:07.169Z,0.00
2023-10-14T04:32:07.002Z,0.00
2023-10-14T04:33:06.996Z,0.00
2023-10-14T04:34:07.028Z,0.00
2023-10-14T04:35:06.975Z,0.00
2023-10-14T04:36:06.976Z,0.00
2023-10-14T04:37:06.971Z,0.00
2023-10-14T04:38:06.988Z,0.00
2023-10-14T04:39:06.910Z,0.00
2023-10-14T04:40:06.948Z,0.00
2023-10-14T04:41:06.948Z,0.00
2023-10-14T04:42:06.878Z,0.00
2023-10-14T04:43:06.931Z,0.00
2023-10-14T04:44:06.878Z,0.00
2023-10-14T04:45:06.856Z,0.00
2023-10-14T04:46:09.183Z,0.00
2023-10-14T04:47:06.945Z,0.00
2023-10-14T04:48:07.054Z,0.00
2023-10-14T04:49:06.852Z,0.00
2023-10-14T04:50:06.850Z,0.00
2023-10-14T04:51:06.816Z,0.00
2023-10-14T04:52:06.827Z,0.00
2023-10-14T04:53:06.770Z,0.00
2023-10-14T04:54:06.784Z,0.00
2023-10-14T04:55:06.777Z,0.00
2023-10-14T04:56:06.777Z,0.00
2023-10-14T04:57:06.779Z,0.00
2023-10-14T04:58:06.806Z,0.00
2023-10-14T04:59:06.728Z,0.00
2023-10-14T05:00:06.687Z,0.00
2023-10-14T05:01:06.721Z,0.00
2023-10-14T05:02:06.669Z,0.00
2023-10-14T05:03:06.718Z,0.00
2023-10-14T05:04:06.742Z,0.00
2023-10-14T05:05:06.643Z,0.00
2023-10-14T05:06:06.628Z,0.00
2023-10-14T05:07:06.621Z,0.00
2023-10-14T05:08:06.618Z,0.00
2023-10-14T05:09:06.607Z,0.00
2023-10-14T05:10:06.640Z,0.00
2023-10-14T05:11:06.560Z,0.00
2023-10-14T05:12:06.583Z,0.00
2023-10-14T05:13:06.583Z,0.00
2023-10-14T05:14:06.564Z,0.00
2023-10-14T05:15:06.568Z,0.00
2023-10-14T05:16:06.542Z,0.00
2023-10-14T05:17:06.527Z,0.00
2023-10-14T05:18:06.537Z,0.00
2023-10-14T05:19:06.541Z,0.00
2023-10-14T05:20:06.481Z,0.00
2023-10-14T05:21:06.498Z,4.00
2023-10-14T05:22:06.513Z,4.00
2023-10-14T05:23:06.506Z,0.00
2023-10-14T05:24:06.439Z,4.00
2023-10-14T05:25:06.479Z,4.00
2023-10-14T05:26:06.425Z,4.00
2023-10-14T05:27:06.404Z,8.00
2023-10-14T05:28:06.464Z,8.00
2023-10-14T05:29:06.385Z,8.00
2023-10-14T05:30:06.390Z,12.00
2023-10-14T05:31:06.452Z,16.00
2023-10-14T05:32:06.366Z,20.00
2023-10-14T05:33:06.349Z,20.00
2023-10-14T05:34:06.423Z,20.00
2023-10-14T05:35:06.363Z,24.00
2023-10-14T05:36:06.321Z,32.00
2023-10-14T05:37:06.328Z,36.00
2023-10-14T05:38:06.284Z,40.00
2023-10-14T05:39:06.268Z,44.00
2023-10-14T05:40:06.280Z,52.00
2023-10-14T05:41:06.242Z,60.00
2023-10-14T05:42:06.229Z,68.00
2023-10-14T05:43:06.252Z,76.00
2023-10-14T05:44:06.210Z,84.00
2023-10-14T05:45:06.222Z,96.00
2023-10-14T05:46:06.313Z,104.00
2023-10-14T05:47:06.267Z,112.00
2023-10-14T05:48:07.048Z,124.00
2023-10-14T05:49:06.321Z,128.00
2023-10-14T05:50:06.255Z,140.00
2023-10-14T05:51:06.132Z,148.00
2023-10-14T05:52:06.168Z,148.00
2023-10-14T05:53:06.112Z,156.00
2023-10-14T05:54:06.093Z,180.00
2023-10-14T05:55:06.144Z,216.00
2023-10-14T05:56:06.116Z,240.00
2023-10-14T05:57:06.058Z,256.00
2023-10-14T05:58:06.087Z,284.00
2023-10-14T05:59:06.040Z,300.00
2023-10-14T06:00:06.055Z,320.00
2023-10-14T06:01:06.059Z,328.00
2023-10-14T06:02:06.033Z,340.00
2023-10-14T06:03:06.054Z,352.00
2023-10-14T06:04:06.056Z,372.00
2023-10-14T06:05:06.044Z,388.00
2023-10-14T06:06:06.345Z,392.00
2023-10-14T06:07:06.013Z,404.00
2023-10-14T06:08:05.946Z,420.00
2023-10-14T06:09:05.921Z,436.00
2023-10-14T06:10:05.994Z,452.00
2023-10-14T06:11:05.909Z,468.00
2023-10-14T06:12:05.888Z,484.00
2023-10-14T06:13:05.925Z,500.00
2023-10-14T06:14:05.913Z,520.00
2023-10-14T06:15:05.896Z,532.00
2023-10-14T06:16:05.930Z,552.00
2023-10-14T06:17:05.944Z,576.00
2023-10-14T06:18:05.882Z,604.00
2023-10-14T06:19:05.920Z,620.00
2023-10-14T06:20:05.851Z,612.00
2023-10-14T06:21:05.805Z,632.00
2023-10-14T06:22:05.802Z,704.00
2023-10-14T06:23:05.782Z,772.00
2023-10-14T06:24:05.788Z,832.00
2023-10-14T06:25:05.801Z,796.00
2023-10-14T06:26:05.769Z,788.00
2023-10-14T06:27:05.772Z,804.00
2023-10-14T06:28:05.739Z,836.00
2023-10-14T06:29:05.707Z,836.00
2023-10-14T06:30:05.726Z,828.00
2023-10-14T06:31:05.800Z,820.00
2023-10-14T06:32:19.653Z,828.00
2023-10-14T06:33:05.751Z,900.00
2023-10-14T06:34:05.671Z,1036.00
2023-10-14T06:35:05.651Z,1048.00
2023-10-14T06:36:05.634Z,912.00
2023-10-14T06:37:05.642Z,936.00
2023-10-14T06:38:05.649Z,956.00
2023-10-14T06:39:05.606Z,924.00
2023-10-14T06:40:05.606Z,852.00
2023-10-14T06:41:05.585Z,852.00
2023-10-14T06:42:05.592Z,864.00
2023-10-14T06:43:05.632Z,872.00
2023-10-14T06:44:05.561Z,876.00
2023-10-14T06:45:05.539Z,880.00
2023-10-14T06:46:05.597Z,888.00
2023-10-14T06:47:05.558Z,920.00
2023-10-14T06:48:05.514Z,956.00
2023-10-14T06:49:05.550Z,968.00
2023-10-14T06:50:05.493Z,972.00
2023-10-14T06:51:05.487Z,952.00
2023-10-14T06:52:05.477Z,948.00
2023-10-14T06:53:05.461Z,952.00
2023-10-14T06:54:05.448Z,952.00
2023-10-14T06:55:05.519Z,956.00
2023-10-14T06:56:05.447Z,956.00
2023-10-14T06:57:05.413Z,960.00
2023-10-14T06:58:05.448Z,968.00
2023-10-14T06:59:05.414Z,976.00
2023-10-14T07:00:05.446Z,988.00
2023-10-14T07:01:05.419Z,992.00
2023-10-14T07:02:05.402Z,1000.00
2023-10-14T07:03:05.390Z,1008.00
2023-10-14T07:04:05.546Z,1016.00
2023-10-14T07:05:05.321Z,1020.00
2023-10-14T07:06:05.352Z,1028.00
2023-10-14T07:07:05.331Z,1040.00
2023-10-14T07:08:05.283Z,1052.00
2023-10-14T07:09:05.289Z,1064.00
2023-10-14T07:10:05.332Z,1068.00
2023-10-14T07:11:05.281Z,1076.00
2023-10-14T07:12:05.276Z,1084.00
2023-10-14T07:13:05.251Z,1088.00
2023-10-14T07:14:05.225Z,1096.00
2023-10-14T07:15:05.226Z,1100.00
2023-10-14T07:16:05.278Z,1108.00
2023-10-14T07:17:05.229Z,1112.00
2023-10-14T07:18:05.258Z,1112.00
2023-10-14T07:19:05.258Z,1116.00
2023-10-14T07:20:05.180Z,1124.00
2023-10-14T07:21:05.153Z,1132.00
2023-10-14T07:22:05.171Z,1140.00
2023-10-14T07:23:05.146Z,1180.00
2023-10-14T07:24:05.127Z,1412.00
2023-10-14T07:25:05.124Z,1320.00
2023-10-14T07:26:05.092Z,1236.00
2023-10-14T07:27:05.072Z,1172.00
2023-10-14T07:28:05.145Z,1152.00
2023-10-14T07:29:05.086Z,1148.00
2023-10-14T07:30:05.040Z,1148.00
2023-10-14T07:31:05.082Z,1136.00
2023-10-14T07:32:11.259Z,1156.00
2023-10-14T07:33:05.114Z,1164.00
2023-10-14T07:34:05.046Z,1172.00
2023-10-14T07:35:05.023Z,1168.00
2023-10-14T07:36:05.779Z,1168.00
2023-10-14T07:37:04.991Z,1180.00
2023-10-14T07:38:04.983Z,1188.00
2023-10-14T07:39:04.951Z,1200.00
2023-10-14T07:40:05.008Z,1260.00
2023-10-14T07:41:04.930Z,1332.00
2023-10-14T07:42:04.981Z,1408.00
2023-10-14T07:43:06.276Z,1400.00
2023-10-14T07:44:04.929Z,1560.00
2023-10-14T07:45:04.916Z,2040.00
2023-10-14T07:46:04.966Z,1468.00
2023-10-14T07:47:04.961Z,1284.00
2023-10-14T07:48:04.919Z,1240.00
2023-10-14T07:49:04.869Z,1196.00
2023-10-14T07:50:04.853Z,1148.00
2023-10-14T07:51:14.068Z,1160.00
2023-10-14T07:52:04.912Z,1216.00
2023-10-14T07:53:04.797Z,1232.00
2023-10-14T07:54:04.800Z,1236.00
2023-10-14T07:55:04.877Z,1236.00
2023-10-14T07:56:04.770Z,1232.00
2023-10-14T07:57:04.761Z,1232.00
2023-10-14T07:58:04.792Z,1240.00
2023-10-14T07:59:04.749Z,1252.00
2023-10-14T08:00:04.740Z,1284.00
2023-10-14T08:01:04.888Z,1312.00
2023-10-14T08:02:04.736Z,1324.00
2023-10-14T08:03:04.733Z,1316.00
2023-10-14T08:04:04.749Z,1276.00
2023-10-14T08:05:04.704Z,1296.00
2023-10-14T08:06:04.669Z,1404.00
2023-10-14T08:07:04.708Z,1476.00
2023-10-14T08:08:04.634Z,1460.00
2023-10-14T08:09:04.620Z,1364.00
2023-10-14T08:10:04.670Z,1292.00
2023-10-14T08:11:04.622Z,1324.00
2023-10-14T08:12:04.611Z,1312.00
2023-10-14T08:13:04.599Z,1268.00
2023-10-14T08:14:04.590Z,1232.00
2023-10-14T08:15:04.611Z,1280.00
2023-10-14T08:16:05.905Z,1348.00
2023-10-14T08:17:04.609Z,1320.00
2023-10-14T08:18:04.558Z,1372.00
2023-10-14T08:19:04.554Z,1404.00
2023-10-14T08:20:04.541Z,1432.00
2023-10-14T08:21:04.681Z,1388.00
2023-10-14T08:22:04.554Z,1380.00
2023-10-14T08:23:04.505Z,1392.00
2023-10-14T08:24:04.470Z,1396.00
2023-10-14T08:25:04.499Z,1400.00
2023-10-14T08:26:04.461Z,1416.00
2023-10-14T08:27:04.442Z,1468.00
2023-10-14T08:28:04.465Z,1700.00
2023-10-14T08:29:04.422Z,1960.00
2023-10-14T08:30:04.445Z,1728.00
2023-10-14T08:31:04.412Z,1564.00
2023-10-14T08:32:04.451Z,1492.00
2023-10-14T08:33:04.456Z,1408.00
2023-10-14T08:34:04.386Z,1412.00
2023-10-14T08:35:04.366Z,1384.00
2023-10-14T08:36:04.367Z,1420.00
2023-10-14T08:37:04.373Z,1428.00
2023-10-14T08:38:04.316Z,1408.00
2023-10-14T08:39:04.323Z,1452.00
2023-10-14T08:40:06.391Z,1604.00
2023-10-14T08:41:04.311Z,2036.00
2023-10-14T08:42:04.274Z,1908.00
2023-10-14T08:43:04.295Z,1704.00
2023-10-14T08:44:04.319Z,1668.00
2023-10-14T08:45:04.250Z,1584.00
2023-10-14T08:46:04.344Z,1560.00
2023-10-14T08:47:06.757Z,1612.00
2023-10-14T08:48:04.258Z,1512.00
2023-10-14T08:49:04.277Z,1564.00
2023-10-14T08:50:04.208Z,1504.00
2023-10-14T08:51:04.176Z,1568.00
2023-10-14T08:52:04.182Z,1544.00
2023-10-14T08:53:04.163Z,1528.00
2023-10-14T08:54:04.163Z,1496.00
2023-10-14T08:55:04.198Z,1500.00
2023-10-14T08:56:04.118Z,1496.00
2023-10-14T08:57:04.123Z,1476.00
2023-10-14T08:58:04.153Z,1480.00
2023-10-14T08:59:04.118Z,1496.00
2023-10-14T09:00:04.093Z,1504.00
2023-10-14T09:01:04.125Z,1540.00
2023-10-14T09:02:04.184Z,1564.00
2023-10-14T09:03:04.053Z,1580.00
2023-10-14T09:04:04.178Z,1572.00
2023-10-14T09:05:04.046Z,1604.00
2023-10-14T09:06:04.002Z,1612.00
2023-10-14T09:07:04.075Z,1620.00
2023-10-14T09:08:03.997Z,1640.00
2023-10-14T09:09:03.985Z,1616.00
2023-10-14T09:10:04.142Z,1616.00
2023-10-14T09:11:03.946Z,1612.00
2023-10-14T09:12:03.948Z,1680.00
2023-10-14T09:13:03.934Z,1720.00
2023-10-14T09:14:03.917Z,1824.00
2023-10-14T09:15:03.933Z,1844.00
2023-10-14T09:16:04.000Z,1876.00
2023-10-14T09:17:03.979Z,1956.00
2023-10-14T09:18:03.944Z,2076.00
2023-10-14T09:19:03.880Z,2260.00
2023-10-14T09:20:03.885Z,2476.00
2023-10-14T09:21:03.847Z,2512.00
2023-10-14T09:22:03.869Z,2340.00
2023-10-14T09:23:03.821Z,2300.00
2023-10-14T09:24:03.816Z,2120.00
2023-10-14T09:25:03.867Z,1736.00
2023-10-14T09:26:03.792Z,1900.00
2023-10-14T09:27:03.806Z,1832.00
2023-10-14T09:28:03.797Z,1864.00
2023-10-14T09:29:03.760Z,1868.00
2023-10-14T09:30:03.787Z,1860.00
2023-10-14T09:31:03.925Z,1812.00
2023-10-14T09:32:03.741Z,1872.00
2023-10-14T09:33:03.790Z,1940.00
2023-10-14T09:34:03.775Z,1916.00
2023-10-14T09:35:03.737Z,1904.00
2023-10-14T09:36:03.735Z,1864.00
2023-10-14T09:37:03.732Z,1840.00
2023-10-14T09:38:03.687Z,1812.00
2023-10-14T09:39:03.638Z,1800.00
2023-10-14T09:40:05.158Z,1784.00
2023-10-14T09:41:03.647Z,1736.00
2023-10-14T09:42:03.626Z,1728.00
2023-10-14T09:43:03.647Z,1720.00
2023-10-14T09:44:03.596Z,1676.00
2023-10-14T09:45:03.624Z,1524.00
2023-10-14T09:46:03.661Z,1652.00
2023-10-14T09:47:03.601Z,1680.00
2023-10-14T09:48:03.602Z,1668.00
2023-10-14T09:49:03.579Z,1612.00
2023-10-14T09:50:03.542Z,1692.00
2023-10-14T09:51:03.545Z,1740.00
2023-10-14T09:52:03.518Z,1804.00
2023-10-14T09:53:03.541Z,1872.00
2023-10-14T09:54:03.468Z,1864.00
2023-10-14T09:55:03.629Z,1860.00
2023-10-14T09:56:05.050Z,1964.00
2023-10-14T09:57:03.450Z,1836.00
2023-10-14T09:58:03.503Z,1580.00
2023-10-14T09:59:03.436Z,1720.00
2023-10-14T10:00:03.468Z,1940.00
2023-10-14T10:01:03.480Z,1968.00
2023-10-14T10:02:03.550Z,2196.00
2023-10-14T10:03:03.460Z,2964.00
2023-10-14T10:04:03.400Z,3648.00
2023-10-14T10:05:03.393Z,3972.00
2023-10-14T10:06:03.354Z,4284.00
2023-10-14T10:07:03.469Z,4724.00
2023-10-14T10:08:03.323Z,5564.00
2023-10-14T10:09:03.335Z,5056.00
2023-10-14T10:10:03.414Z,4488.00
2023-10-14T10:11:03.414Z,4148.00
2023-10-14T10:12:03.276Z,4896.00
2023-10-14T10:13:03.430Z,5000.00
2023-10-14T10:14:03.270Z,5264.00
2023-10-14T10:15:03.292Z,4896.00
2023-10-14T10:16:03.314Z,4664.00
2023-10-14T10:17:03.270Z,5308.00
2023-10-14T10:18:03.295Z,5412.00
2023-10-14T10:19:03.317Z,6364.00
2023-10-14T10:20:03.232Z,6288.00
2023-10-14T10:21:03.203Z,7500.00
2023-10-14T10:22:03.226Z,7792.00
2023-10-14T10:23:03.171Z,6656.00
2023-10-14T10:24:03.163Z,6224.00
2023-10-14T10:25:03.233Z,4832.00
2023-10-14T10:26:03.167Z,3724.00
2023-10-14T10:27:03.143Z,3488.00
2023-10-14T10:28:03.144Z,2900.00
2023-10-14T10:29:03.103Z,2312.00
2023-10-14T10:30:03.146Z,2132.00
2023-10-14T10:31:03.098Z,2804.00
2023-10-14T10:32:03.120Z,3144.00
2023-10-14T10:33:03.104Z,2592.00
2023-10-14T10:34:03.173Z,2136.00
2023-10-14T10:35:03.083Z,2096.00
2023-10-14T10:36:03.037Z,2032.00
2023-10-14T10:37:03.033Z,1976.00
2023-10-14T10:38:03.021Z,1940.00
2023-10-14T10:39:03.001Z,1964.00
2023-10-14T10:40:03.035Z,2028.00
2023-10-14T10:41:02.968Z,2132.00
2023-10-14T10:42:02.973Z,2120.00
2023-10-14T10:43:02.977Z,2200.00
2023-10-14T10:44:02.970Z,2188.00
2023-10-14T10:45:02.923Z,1524.00
2023-10-14T10:46:03.540Z,1548.00
2023-10-14T10:47:02.949Z,1616.00
2023-10-14T10:48:02.949Z,2196.00
2023-10-14T10:49:02.958Z,3424.00
2023-10-14T10:50:02.891Z,4176.00
2023-10-14T10:51:02.876Z,3888.00
2023-10-14T10:52:02.910Z,3860.00
2023-10-14T10:53:02.854Z,3940.00
2023-10-14T10:54:02.828Z,3560.00
2023-10-14T10:55:02.914Z,3248.00
2023-10-14T10:56:02.812Z,3116.00
2023-10-14T10:57:08.177Z,2936.00
2023-10-14T10:58:02.864Z,2528.00
2023-10-14T10:59:02.778Z,2372.00
2023-10-14T11:00:02.779Z,2184.00
2023-10-14T11:01:02.822Z,2260.00
2023-10-14T11:02:02.948Z,2872.00
2023-10-14T11:03:02.878Z,3088.00
2023-10-14T11:04:02.827Z,3032.00
2023-10-14T11:05:02.725Z,2708.00
2023-10-14T11:06:02.691Z,2492.00
2023-10-14T11:07:02.766Z,3008.00
2023-10-14T11:08:02.682Z,3000.00
2023-10-14T11:09:02.666Z,2712.00
2023-10-14T11:10:02.734Z,2276.00
2023-10-14T11:11:02.726Z,2068.00
2023-10-14T11:12:02.655Z,2556.00
2023-10-14T11:13:02.688Z,2920.00
2023-10-14T11:14:02.678Z,3364.00
2023-10-14T11:15:02.591Z,2772.00
2023-10-14T11:16:02.613Z,2552.00
2023-10-14T11:17:02.636Z,2584.00
2023-10-14T11:18:02.611Z,2888.00
2023-10-14T11:19:02.572Z,3268.00
2023-10-14T11:20:02.550Z,3692.00
2023-10-14T11:21:02.513Z,3812.00
2023-10-14T11:22:02.584Z,4124.00
2023-10-14T11:23:02.516Z,4564.00
2023-10-14T11:24:02.486Z,4468.00
2023-10-14T11:25:02.523Z,4116.00
2023-10-14T11:26:02.502Z,4136.00
2023-10-14T11:27:02.523Z,4112.00
2023-10-14T11:28:02.524Z,4080.00
2023-10-14T11:29:02.451Z,4240.00
2023-10-14T11:30:02.420Z,4404.00
2023-10-14T11:31:02.551Z,4268.00
2023-10-14T11:32:02.431Z,4352.00
2023-10-14T11:33:02.412Z,4292.00
2023-10-14T11:34:02.426Z,4444.00
2023-10-14T11:35:02.391Z,4480.00
2023-10-14T11:36:02.380Z,3700.00
2023-10-14T11:37:02.417Z,3668.00
2023-10-14T11:38:02.341Z,4268.00
2023-10-14T11:39:02.341Z,4136.00
2023-10-14T11:40:02.383Z,3844.00
2023-10-14T11:41:02.324Z,3584.00
2023-10-14T11:42:02.304Z,3568.00
2023-10-14T11:43:02.315Z,3860.00
2023-10-14T11:44:02.292Z,3864.00
2023-10-14T11:45:02.256Z,3852.00
2023-10-14T11:46:02.304Z,4680.00
2023-10-14T11:47:02.382Z,5016.00
2023-10-14T11:48:02.323Z,4400.00
2023-10-14T11:49:02.277Z,4024.00
2023-10-14T11:50:02.209Z,3788.00
2023-10-14T11:51:02.237Z,3716.00
2023-10-14T11:52:02.196Z,3472.00
2023-10-14T11:53:02.177Z,3352.00
2023-10-14T11:54:02.172Z,3408.00
2023-10-14T11:55:02.212Z,3628.00
2023-10-14T11:56:02.184Z,3996.00
2023-10-14T11:57:02.139Z,4300.00
2023-10-14T11:58:02.166Z,4408.00
2023-10-14T11:59:02.116Z,4324.00
2023-10-14T12:00:02.142Z,4440.00
2023-10-14T12:01:02.104Z,5064.00
2023-10-14T12:02:02.060Z,5392.00
2023-10-14T12:03:02.189Z,4016.00
2023-10-14T12:04:02.171Z,2560.00
2023-10-14T12:05:02.119Z,2136.00
2023-10-14T12:06:02.049Z,2008.00
2023-10-14T12:07:02.058Z,1936.00
2023-10-14T12:08:02.037Z,1872.00
2023-10-14T12:09:02.000Z,1904.00
2023-10-14T12:10:02.069Z,1972.00
2023-10-14T12:11:01.971Z,2060.00
2023-10-14T12:12:02.025Z,2116.00
2023-10-14T12:13:01.976Z,2164.00
2023-10-14T12:14:02.014Z,2220.00
2023-10-14T12:15:01.976Z,2276.00
2023-10-14T12:16:01.938Z,2272.00
2023-10-14T12:17:01.997Z,2512.00
2023-10-14T12:18:02.023Z,2668.00
2023-10-14T12:19:01.973Z,2740.00
2023-10-14T12:20:01.900Z,2920.00
2023-10-14T12:21:01.899Z,2952.00
2023-10-14T12:22:01.883Z,3064.00
2023-10-14T12:23:01.909Z,2924.00
2023-10-14T12:24:01.864Z,2980.00
2023-10-14T12:25:01.881Z,2964.00
2023-10-14T12:26:01.888Z,2756.00
2023-10-14T12:27:01.825Z,2520.00
2023-10-14T12:28:01.808Z,2292.00
2023-10-14T12:29:01.789Z,2120.00
2023-10-14T12:30:01.796Z,1996.00
2023-10-14T12:31:01.827Z,1944.00
2023-10-14T12:32:17.338Z,1932.00
2023-10-14T12:33:01.816Z,2452.00
2023-10-14T12:34:01.772Z,2504.00
2023-10-14T12:35:01.751Z,2244.00
2023-10-14T12:36:01.693Z,2348.00
2023-10-14T12:37:01.746Z,2708.00
2023-10-14T12:38:01.718Z,2752.00
2023-10-14T12:39:01.673Z,2804.00
2023-10-14T12:40:01.685Z,2924.00